Portada
METAR-TAF:

METAR-TAF

Aeroports :

San José, Costa Rica

latitud: 10-00N, longitud: 084-13W, altitud: 920 m

Observació

L'informe es va fer fa 25 minuts, a les 16:00 UTC
Vent 19 kt del Est amb ràfegues de 31 kt
Temperatura 23°C
Humitat 61%
Pressió 1018 hPa
Visibilitat 10 km o més
Escasses núvols a una alçada de 4000 ft

METAR: MROC 051600Z 10019G31KT 9999 FEW040 23/15 A3006 NOSIG

Hora: 10:25 (16:25 UTC)

Pronòstic

L'informe es va fer fa 5 hores i 25 minuts, a les 11:00 UTC
Pronòstic vàlid del 05 a les 12 UTC al 06 a les 12 UTC
Vent 17 kt del Est amb ràfegues de 27 kt
Visibilitat 10 km o més
sense núvols per sota de 1500 mi sense presència de cumulonimbus.
Temporalment
l' 05 a les 14 UTC al 05 a les 22 UTC
Vent 23 kt del Est amb ràfegues de 33 kt

TAF: MROC 051100Z 0512/0612 09017G27KT CAVOK TX27/0519Z TN18/0611Z TEMPO 0514/0522 10023G33KT

Observacions i pronòstics meteorològics de més de 4000 aeroports (METAR i TAF).

Les estacions disponibles són els punts grocs i vermells al mapa.

Posi el ratolí al punt desitjat per veure el nom de l'estació.

Feu clic per veure les observacions i els pronòstics meteorològics.

Per canviar el mapa: feu clic els botons verds amb una creu de color negre per apropar; al botó verd amb un guió per allunyar la imatge; o en les fletxes verdes per a mapes adjacents.


METAR-TAF: